sensor_id;sensor_type;location;lat;lon;timestamp;pressure;altitude;pressure_sealevel;temperature;humidity
35848;BME280;22332;51.954;20.118;2023-02-13T00:01:47;101926.76;;;4.96;84.26
35848;BME280;22332;51.954;20.118;2023-02-13T00:04:52;101929.38;;;5.04;84.42
35848;BME280;22332;51.954;20.118;2023-02-13T00:07:58;101927.64;;;5.10;83.91
35848;BME280;22332;51.954;20.118;2023-02-13T00:11:04;101928.00;;;5.14;84.39
35848;BME280;22332;51.954;20.118;2023-02-13T00:14:09;101922.86;;;5.14;84.33
35848;BME280;22332;51.954;20.118;2023-02-13T00:17:15;101925.86;;;5.10;85.20
35848;BME280;22332;51.954;20.118;2023-02-13T00:20:21;101926.50;;;5.05;84.86
35848;BME280;22332;51.954;20.118;2023-02-13T00:23:26;101928.34;;;5.07;84.71
35848;BME280;22332;51.954;20.118;2023-02-13T00:26:33;101928.53;;;5.10;84.58
35848;BME280;22332;51.954;20.118;2023-02-13T00:29:38;101923.05;;;5.18;84.34
35848;BME280;22332;51.954;20.118;2023-02-13T00:32:44;101919.60;;;5.23;84.56
35848;BME280;22332;51.954;20.118;2023-02-13T00:35:49;101899.46;;;5.23;84.33
35848;BME280;22332;51.954;20.118;2023-02-13T00:38:55;101898.93;;;5.24;84.11
35848;BME280;22332;51.954;20.118;2023-02-13T00:42:00;101889.41;;;5.27;84.04
35848;BME280;22332;51.954;20.118;2023-02-13T00:45:07;101889.05;;;5.30;84.18
35848;BME280;22332;51.954;20.118;2023-02-13T00:48:13;101883.48;;;5.32;84.28
35848;BME280;22332;51.954;20.118;2023-02-13T00:51:20;101880.95;;;5.33;84.03
35848;BME280;22332;51.954;20.118;2023-02-13T00:54:26;101881.60;;;5.35;84.06
35848;BME280;22332;51.954;20.118;2023-02-13T00:57:31;101878.70;;;5.33;84.10
35848;BME280;22332;51.954;20.118;2023-02-13T01:00:38;101877.97;;;5.30;84.24
35848;BME280;22332;51.954;20.118;2023-02-13T01:03:43;101876.54;;;5.30;84.38
35848;BME280;22332;51.954;20.118;2023-02-13T01:06:49;101881.38;;;5.32;84.36
35848;BME280;22332;51.954;20.118;2023-02-13T01:09:54;101884.35;;;5.36;84.28
35848;BME280;22332;51.954;20.118;2023-02-13T01:13:00;101888.17;;;5.37;84.18
35848;BME280;22332;51.954;20.118;2023-02-13T01:16:06;101889.10;;;5.36;84.18
35848;BME280;22332;51.954;20.118;2023-02-13T01:19:12;101887.27;;;5.34;84.19
35848;BME280;22332;51.954;20.118;2023-02-13T01:22:17;101885.54;;;5.30;84.23
35848;BME280;22332;51.954;20.118;2023-02-13T01:25:23;101888.38;;;5.30;84.38
35848;BME280;22332;51.954;20.118;2023-02-13T01:28:29;101886.30;;;5.32;84.37
35848;BME280;22332;51.954;20.118;2023-02-13T01:31:34;101881.99;;;5.34;84.19
35848;BME280;22332;51.954;20.118;2023-02-13T01:34:40;101879.38;;;5.33;84.25
35848;BME280;22332;51.954;20.118;2023-02-13T01:37:45;101880.23;;;5.34;84.28
35848;BME280;22332;51.954;20.118;2023-02-13T01:40:52;101880.77;;;5.34;84.17
35848;BME280;22332;51.954;20.118;2023-02-13T01:43:59;101876.19;;;5.33;84.31
35848;BME280;22332;51.954;20.118;2023-02-13T01:47:05;101874.61;;;5.33;84.22
35848;BME280;22332;51.954;20.118;2023-02-13T01:50:15;101869.82;;;5.37;84.43
35848;BME280;22332;51.954;20.118;2023-02-13T01:53:25;101871.23;;;5.40;84.28
35848;BME280;22332;51.954;20.118;2023-02-13T01:56:34;101868.18;;;5.41;84.30
35848;BME280;22332;51.954;20.118;2023-02-13T01:59:46;101869.21;;;5.42;84.42
35848;BME280;22332;51.954;20.118;2023-02-13T02:02:57;101866.61;;;5.41;84.22
35848;BME280;22332;51.954;20.118;2023-02-13T02:06:08;101870.01;;;5.40;84.55
35848;BME280;22332;51.954;20.118;2023-02-13T02:09:18;101867.86;;;5.40;84.41
35848;BME280;22332;51.954;20.118;2023-02-13T02:12:28;101865.80;;;5.43;84.45
35848;BME280;22332;51.954;20.118;2023-02-13T02:15:37;101868.23;;;5.47;84.23
35848;BME280;22332;51.954;20.118;2023-02-13T02:18:42;101866.38;;;5.49;84.17
35848;BME280;22332;51.954;20.118;2023-02-13T02:22:07;101862.70;;;5.49;84.09
35848;BME280;22332;51.954;20.118;2023-02-13T02:25:48;101865.45;;;5.46;84.29
35848;BME280;22332;51.954;20.118;2023-02-13T02:32:57;101869.52;;;5.43;84.19
35848;BME280;22332;51.954;20.118;2023-02-13T02:36:19;101873.95;;;5.46;84.20
35848;BME280;22332;51.954;20.118;2023-02-13T02:39:31;101869.51;;;5.50;84.39
35848;BME280;22332;51.954;20.118;2023-02-13T02:42:46;101870.91;;;5.50;84.07
35848;BME280;22332;51.954;20.118;2023-02-13T02:45:57;101874.16;;;5.48;84.17
35848;BME280;22332;51.954;20.118;2023-02-13T02:49:12;101871.76;;;5.47;84.30
35848;BME280;22332;51.954;20.118;2023-02-13T02:52:44;101877.75;;;5.47;84.28
35848;BME280;22332;51.954;20.118;2023-02-13T02:55:57;101879.38;;;5.46;84.30
35848;BME280;22332;51.954;20.118;2023-02-13T02:59:12;101881.11;;;5.44;84.15
35848;BME280;22332;51.954;20.118;2023-02-13T03:02:38;101883.70;;;5.45;84.23
35848;BME280;22332;51.954;20.118;2023-02-13T03:06:03;101883.51;;;5.49;84.13
35848;BME280;22332;51.954;20.118;2023-02-13T03:09:18;101882.84;;;5.52;84.23
35848;BME280;22332;51.954;20.118;2023-02-13T03:12:44;101881.03;;;5.52;84.26
35848;BME280;22332;51.954;20.118;2023-02-13T03:16:14;101879.63;;;5.48;84.04
35848;BME280;22332;51.954;20.118;2023-02-13T03:19:56;101878.67;;;5.46;84.14
35848;BME280;22332;51.954;20.118;2023-02-13T03:23:25;101889.92;;;5.41;84.34
35848;BME280;22332;51.954;20.118;2023-02-13T03:26:40;101888.52;;;5.40;84.59
35848;BME280;22332;51.954;20.118;2023-02-13T03:30:02;101892.83;;;5.42;84.33
35848;BME280;22332;51.954;20.118;2023-02-13T03:33:22;101894.67;;;5.41;84.25
35848;BME280;22332;51.954;20.118;2023-02-13T03:36:36;101892.49;;;5.42;84.30
35848;BME280;22332;51.954;20.118;2023-02-13T03:40:06;101892.09;;;5.40;84.51
35848;BME280;22332;51.954;20.118;2023-02-13T03:43:15;101888.49;;;5.34;84.59
35848;BME280;22332;51.954;20.118;2023-02-13T03:46:24;101887.20;;;5.32;84.69
35848;BME280;22332;51.954;20.118;2023-02-13T03:49:32;101889.17;;;5.31;84.57
35848;BME280;22332;51.954;20.118;2023-02-13T03:53:00;101887.33;;;5.33;84.75
35848;BME280;22332;51.954;20.118;2023-02-13T03:56:09;101887.83;;;5.34;84.65
35848;BME280;22332;51.954;20.118;2023-02-13T03:59:36;101884.96;;;5.31;84.56
35848;BME280;22332;51.954;20.118;2023-02-13T04:02:49;101886.95;;;5.30;84.70
35848;BME280;22332;51.954;20.118;2023-02-13T04:06:03;101881.83;;;5.23;85.04
35848;BME280;22332;51.954;20.118;2023-02-13T04:09:10;101881.66;;;5.23;85.20
35848;BME280;22332;51.954;20.118;2023-02-13T04:12:19;101876.75;;;5.23;84.98
35848;BME280;22332;51.954;20.118;2023-02-13T04:15:35;101878.95;;;5.25;85.02
35848;BME280;22332;51.954;20.118;2023-02-13T04:18:42;101877.81;;;5.29;84.78
35848;BME280;22332;51.954;20.118;2023-02-13T04:21:53;101887.38;;;5.32;85.08
35848;BME280;22332;51.954;20.118;2023-02-13T04:25:00;101883.29;;;5.29;84.87
35848;BME280;22332;51.954;20.118;2023-02-13T04:28:06;101885.42;;;5.28;84.83
35848;BME280;22332;51.954;20.118;2023-02-13T04:31:12;101880.70;;;5.28;84.93
35848;BME280;22332;51.954;20.118;2023-02-13T04:34:18;101883.25;;;5.26;85.09
35848;BME280;22332;51.954;20.118;2023-02-13T04:37:23;101883.61;;;5.26;84.98
35848;BME280;22332;51.954;20.118;2023-02-13T04:40:29;101888.23;;;5.32;85.09
35848;BME280;22332;51.954;20.118;2023-02-13T04:43:34;101888.77;;;5.36;84.96
35848;BME280;22332;51.954;20.118;2023-02-13T04:46:40;101888.27;;;5.35;84.86
35848;BME280;22332;51.954;20.118;2023-02-13T04:49:46;101887.94;;;5.35;84.69
35848;BME280;22332;51.954;20.118;2023-02-13T04:52:53;101890.94;;;5.31;84.76
35848;BME280;22332;51.954;20.118;2023-02-13T04:55:59;101895.13;;;5.32;84.76
35848;BME280;22332;51.954;20.118;2023-02-13T04:59:04;101893.51;;;5.37;84.93
35848;BME280;22332;51.954;20.118;2023-02-13T05:02:10;101893.42;;;5.38;84.91
35848;BME280;22332;51.954;20.118;2023-02-13T05:05:16;101894.80;;;5.39;85.09
35848;BME280;22332;51.954;20.118;2023-02-13T05:08:22;101903.29;;;5.38;84.94
35848;BME280;22332;51.954;20.118;2023-02-13T05:11:27;101902.45;;;5.34;84.91
35848;BME280;22332;51.954;20.118;2023-02-13T05:14:33;101908.60;;;5.31;85.07
35848;BME280;22332;51.954;20.118;2023-02-13T05:17:38;101902.06;;;5.31;85.03
35848;BME280;22332;51.954;20.118;2023-02-13T05:20:44;101900.64;;;5.35;85.37
35848;BME280;22332;51.954;20.118;2023-02-13T05:24:10;101899.16;;;5.36;84.97
35848;BME280;22332;51.954;20.118;2023-02-13T05:27:15;101901.48;;;5.36;85.10
35848;BME280;22332;51.954;20.118;2023-02-13T05:30:21;101905.74;;;5.32;85.08
35848;BME280;22332;51.954;20.118;2023-02-13T05:33:27;101903.24;;;5.25;85.23
35848;BME280;22332;51.954;20.118;2023-02-13T05:36:32;101906.31;;;5.21;85.03
35848;BME280;22332;51.954;20.118;2023-02-13T05:39:38;101906.39;;;5.16;85.07
35848;BME280;22332;51.954;20.118;2023-02-13T05:42:44;101909.99;;;5.21;85.18
35848;BME280;22332;51.954;20.118;2023-02-13T05:45:49;101912.33;;;5.24;85.22
35848;BME280;22332;51.954;20.118;2023-02-13T05:48:55;101904.89;;;5.24;85.15
35848;BME280;22332;51.954;20.118;2023-02-13T05:52:00;101907.42;;;5.27;85.14
35848;BME280;22332;51.954;20.118;2023-02-13T05:55:07;101905.88;;;5.25;85.33
35848;BME280;22332;51.954;20.118;2023-02-13T05:58:13;101907.12;;;5.25;85.38
35848;BME280;22332;51.954;20.118;2023-02-13T06:01:18;101910.85;;;5.32;85.32
35848;BME280;22332;51.954;20.118;2023-02-13T06:04:24;101908.55;;;5.36;85.27
35848;BME280;22332;51.954;20.118;2023-02-13T06:07:29;101906.23;;;5.40;85.25
35848;BME280;22332;51.954;20.118;2023-02-13T06:10:35;101914.98;;;5.41;85.24
35848;BME280;22332;51.954;20.118;2023-02-13T06:13:40;101919.60;;;5.37;85.24
35848;BME280;22332;51.954;20.118;2023-02-13T06:16:46;101922.34;;;5.35;85.17
35848;BME280;22332;51.954;20.118;2023-02-13T06:19:51;101920.35;;;5.32;85.37
35848;BME280;22332;51.954;20.118;2023-02-13T06:22:57;101916.80;;;5.33;85.11
35848;BME280;22332;51.954;20.118;2023-02-13T06:26:04;101912.02;;;5.33;85.28
35848;BME280;22332;51.954;20.118;2023-02-13T06:29:10;101903.79;;;5.35;85.47
35848;BME280;22332;51.954;20.118;2023-02-13T06:32:16;101911.65;;;5.40;85.28
35848;BME280;22332;51.954;20.118;2023-02-13T06:35:21;101911.16;;;5.43;85.15
35848;BME280;22332;51.954;20.118;2023-02-13T06:38:27;101916.65;;;5.46;85.17
35848;BME280;22332;51.954;20.118;2023-02-13T06:41:33;101916.29;;;5.46;85.16
35848;BME280;22332;51.954;20.118;2023-02-13T06:44:38;101913.42;;;5.47;85.16
35848;BME280;22332;51.954;20.118;2023-02-13T06:47:46;101910.73;;;5.48;85.25
35848;BME280;22332;51.954;20.118;2023-02-13T06:50:52;101912.20;;;5.54;85.09
35848;BME280;22332;51.954;20.118;2023-02-13T06:53:57;101908.44;;;5.59;85.04
35848;BME280;22332;51.954;20.118;2023-02-13T06:57:03;101912.29;;;5.59;84.98
35848;BME280;22332;51.954;20.118;2023-02-13T07:00:10;101906.92;;;5.60;84.91
35848;BME280;22332;51.954;20.118;2023-02-13T07:03:17;101907.86;;;5.63;85.11
35848;BME280;22332;51.954;20.118;2023-02-13T07:06:22;101910.03;;;5.61;84.71
35848;BME280;22332;51.954;20.118;2023-02-13T07:09:29;101913.20;;;5.59;84.83
35848;BME280;22332;51.954;20.118;2023-02-13T07:12:35;101916.63;;;5.60;84.66
35848;BME280;22332;51.954;20.118;2023-02-13T07:15:40;101913.83;;;5.60;84.55
35848;BME280;22332;51.954;20.118;2023-02-13T07:18:46;101921.33;;;5.65;84.77
35848;BME280;22332;51.954;20.118;2023-02-13T07:21:52;101921.24;;;5.70;84.59
35848;BME280;22332;51.954;20.118;2023-02-13T07:24:58;101928.48;;;5.70;84.84
35848;BME280;22332;51.954;20.118;2023-02-13T07:28:05;101927.08;;;5.73;84.65
35848;BME280;22332;51.954;20.118;2023-02-13T07:31:11;101931.15;;;5.76;84.36
35848;BME280;22332;51.954;20.118;2023-02-13T07:34:16;101933.73;;;5.78;84.44
35848;BME280;22332;51.954;20.118;2023-02-13T07:37:22;101928.05;;;5.78;84.46
35848;BME280;22332;51.954;20.118;2023-02-13T07:40:28;101922.21;;;5.85;84.46
35848;BME280;22332;51.954;20.118;2023-02-13T07:43:33;101913.03;;;5.99;84.79
35848;BME280;22332;51.954;20.118;2023-02-13T07:46:39;101921.35;;;6.12;84.55
35848;BME280;22332;51.954;20.118;2023-02-13T07:49:44;101922.58;;;6.22;84.73
35848;BME280;22332;51.954;20.118;2023-02-13T07:52:54;101915.69;;;6.25;84.53
35848;BME280;22332;51.954;20.118;2023-02-13T07:56:05;101917.22;;;6.25;84.36
35848;BME280;22332;51.954;20.118;2023-02-13T07:59:11;101917.27;;;6.25;84.44
35848;BME280;22332;51.954;20.118;2023-02-13T08:02:17;101917.08;;;6.25;84.46
35848;BME280;22332;51.954;20.118;2023-02-13T08:05:22;101913.28;;;6.23;84.57
35848;BME280;22332;51.954;20.118;2023-02-13T08:08:28;101918.37;;;6.21;84.47
35848;BME280;22332;51.954;20.118;2023-02-13T08:11:33;101918.69;;;6.21;85.07
35848;BME280;22332;51.954;20.118;2023-02-13T08:14:53;101913.30;;;6.23;85.03
35848;BME280;22332;51.954;20.118;2023-02-13T08:17:59;101913.29;;;6.23;85.11
35848;BME280;22332;51.954;20.118;2023-02-13T08:21:04;101912.49;;;6.25;85.82
35848;BME280;22332;51.954;20.118;2023-02-13T08:24:10;101918.84;;;6.28;85.92
35848;BME280;22332;51.954;20.118;2023-02-13T08:27:16;101916.75;;;6.28;85.80
35848;BME280;22332;51.954;20.118;2023-02-13T08:30:22;101919.48;;;6.30;85.89
35848;BME280;22332;51.954;20.118;2023-02-13T08:33:27;101914.29;;;6.25;86.17
35848;BME280;22332;51.954;20.118;2023-02-13T08:36:34;101915.56;;;6.30;86.09
35848;BME280;22332;51.954;20.118;2023-02-13T08:39:40;101911.80;;;6.38;86.34
35848;BME280;22332;51.954;20.118;2023-02-13T08:42:45;101912.45;;;6.42;86.13
35848;BME280;22332;51.954;20.118;2023-02-13T08:45:51;101911.29;;;6.44;85.88
35848;BME280;22332;51.954;20.118;2023-02-13T08:48:56;101902.58;;;6.51;86.05
35848;BME280;22332;51.954;20.118;2023-02-13T08:52:02;101899.64;;;6.62;86.20
35848;BME280;22332;51.954;20.118;2023-02-13T08:55:08;101898.67;;;6.70;85.92
35848;BME280;22332;51.954;20.118;2023-02-13T08:58:13;101894.11;;;6.76;85.75
35848;BME280;22332;51.954;20.118;2023-02-13T09:01:19;101890.46;;;6.78;85.50
35848;BME280;22332;51.954;20.118;2023-02-13T09:04:24;101890.79;;;6.75;85.66
35848;BME280;22332;51.954;20.118;2023-02-13T09:07:31;101894.08;;;6.76;86.00
35848;BME280;22332;51.954;20.118;2023-02-13T09:10:36;101892.68;;;6.82;85.79
35848;BME280;22332;51.954;20.118;2023-02-13T09:13:42;101893.20;;;6.88;85.51
35848;BME280;22332;51.954;20.118;2023-02-13T09:16:48;101888.02;;;6.80;85.38
35848;BME280;22332;51.954;20.118;2023-02-13T09:19:53;101882.30;;;6.81;85.70
35848;BME280;22332;51.954;20.118;2023-02-13T09:22:59;101882.04;;;6.74;85.38
35848;BME280;22332;51.954;20.118;2023-02-13T09:26:07;101884.80;;;6.65;85.61
35848;BME280;22332;51.954;20.118;2023-02-13T09:29:13;101881.13;;;6.67;85.77
35848;BME280;22332;51.954;20.118;2023-02-13T09:32:18;101881.35;;;6.82;85.62
35848;BME280;22332;51.954;20.118;2023-02-13T09:35:24;101881.92;;;7.00;85.65
35848;BME280;22332;51.954;20.118;2023-02-13T09:38:30;101880.60;;;7.04;84.34
35848;BME280;22332;51.954;20.118;2023-02-13T09:41:37;101876.59;;;6.97;84.75
35848;BME280;22332;51.954;20.118;2023-02-13T09:44:45;101873.30;;;6.90;83.88
35848;BME280;22332;51.954;20.118;2023-02-13T09:47:51;101877.55;;;6.78;83.72
35848;BME280;22332;51.954;20.118;2023-02-13T09:50:57;101884.16;;;6.67;83.88
35848;BME280;22332;51.954;20.118;2023-02-13T09:54:04;101877.63;;;6.58;84.37
35848;BME280;22332;51.954;20.118;2023-02-13T09:57:16;101881.43;;;6.59;84.77
35848;BME280;22332;51.954;20.118;2023-02-13T10:00:29;101879.08;;;6.60;84.24
35848;BME280;22332;51.954;20.118;2023-02-13T10:03:41;101877.39;;;6.59;83.96
35848;BME280;22332;51.954;20.118;2023-02-13T10:06:54;101887.67;;;6.52;84.27
35848;BME280;22332;51.954;20.118;2023-02-13T10:10:16;101888.14;;;6.44;84.00
35848;BME280;22332;51.954;20.118;2023-02-13T10:13:33;101877.20;;;6.50;84.06
35848;BME280;22332;51.954;20.118;2023-02-13T10:16:46;101880.24;;;6.49;83.70
35848;BME280;22332;51.954;20.118;2023-02-13T10:19:56;101878.80;;;6.52;83.82
35848;BME280;22332;51.954;20.118;2023-02-13T10:23:15;101877.55;;;6.56;83.69
35848;BME280;22332;51.954;20.118;2023-02-13T10:26:23;101879.75;;;6.60;83.42
35848;BME280;22332;51.954;20.118;2023-02-13T10:29:49;101884.55;;;6.73;83.85
35848;BME280;22332;51.954;20.118;2023-02-13T10:33:15;101877.55;;;6.90;83.64
35848;BME280;22332;51.954;20.118;2023-02-13T10:36:26;101881.58;;;6.87;82.35
35848;BME280;22332;51.954;20.118;2023-02-13T10:39:32;101884.71;;;6.88;82.21
35848;BME280;22332;51.954;20.118;2023-02-13T10:42:43;101881.64;;;6.83;82.75
35848;BME280;22332;51.954;20.118;2023-02-13T10:45:58;101887.23;;;6.76;82.57
35848;BME280;22332;51.954;20.118;2023-02-13T10:49:20;101880.60;;;6.80;82.80
35848;BME280;22332;51.954;20.118;2023-02-13T10:52:38;101875.94;;;6.87;82.42
35848;BME280;22332;51.954;20.118;2023-02-13T10:56:01;101867.95;;;6.91;82.81
35848;BME280;22332;51.954;20.118;2023-02-13T10:59:42;101862.49;;;6.90;82.50
35848;BME280;22332;51.954;20.118;2023-02-13T11:02:49;101862.53;;;6.93;82.70
35848;BME280;22332;51.954;20.118;2023-02-13T11:05:56;101859.66;;;6.84;81.70
35848;BME280;22332;51.954;20.118;2023-02-13T11:09:02;101857.23;;;6.81;81.89
35848;BME280;22332;51.954;20.118;2023-02-13T11:12:26;101856.73;;;6.80;82.26
35848;BME280;22332;51.954;20.118;2023-02-13T11:15:33;101857.48;;;6.76;81.47
35848;BME280;22332;51.954;20.118;2023-02-13T11:18:42;101859.23;;;6.77;81.93
35848;BME280;22332;51.954;20.118;2023-02-13T11:21:59;101856.92;;;6.73;81.31
35848;BME280;22332;51.954;20.118;2023-02-13T11:25:16;101858.71;;;6.70;81.77
35848;BME280;22332;51.954;20.118;2023-02-13T11:28:22;101853.77;;;6.61;81.66
35848;BME280;22332;51.954;20.118;2023-02-13T11:31:30;101851.88;;;6.63;82.13
35848;BME280;22332;51.954;20.118;2023-02-13T11:34:36;101850.09;;;6.69;82.46
35848;BME280;22332;51.954;20.118;2023-02-13T11:37:41;101842.71;;;6.81;82.18
35848;BME280;22332;51.954;20.118;2023-02-13T11:40:49;101846.71;;;6.96;82.35
35848;BME280;22332;51.954;20.118;2023-02-13T11:43:57;101847.87;;;7.04;81.03
35848;BME280;22332;51.954;20.118;2023-02-13T11:47:05;101847.98;;;7.02;80.60
35848;BME280;22332;51.954;20.118;2023-02-13T11:50:26;101839.65;;;7.05;81.01
35848;BME280;22332;51.954;20.118;2023-02-13T11:53:37;101837.11;;;7.06;80.72
35848;BME280;22332;51.954;20.118;2023-02-13T11:56:51;101833.88;;;7.07;80.38
35848;BME280;22332;51.954;20.118;2023-02-13T11:59:58;101827.23;;;7.18;80.82
35848;BME280;22332;51.954;20.118;2023-02-13T12:03:22;101824.90;;;7.25;80.36
35848;BME280;22332;51.954;20.118;2023-02-13T12:06:29;101819.67;;;7.32;79.96
35848;BME280;22332;51.954;20.118;2023-02-13T12:09:44;101815.46;;;7.51;80.38
35848;BME280;22332;51.954;20.118;2023-02-13T12:12:54;101811.17;;;7.66;79.31
35848;BME280;22332;51.954;20.118;2023-02-13T12:16:02;101808.55;;;7.74;79.30
35848;BME280;22332;51.954;20.118;2023-02-13T12:19:13;101808.66;;;7.64;77.51
35848;BME280;22332;51.954;20.118;2023-02-13T12:22:33;101813.88;;;7.51;77.61
35848;BME280;22332;51.954;20.118;2023-02-13T12:25:51;101811.56;;;7.37;77.40
35848;BME280;22332;51.954;20.118;2023-02-13T12:29:10;101807.25;;;7.23;77.05
35848;BME280;22332;51.954;20.118;2023-02-13T12:32:20;101804.38;;;7.18;77.18
35848;BME280;22332;51.954;20.118;2023-02-13T12:35:39;101800.77;;;7.14;78.28
35848;BME280;22332;51.954;20.118;2023-02-13T12:38:58;101796.91;;;7.27;78.71
35848;BME280;22332;51.954;20.118;2023-02-13T12:42:23;101797.95;;;7.40;78.16
35848;BME280;22332;51.954;20.118;2023-02-13T12:45:39;101788.33;;;7.44;77.54
35848;BME280;22332;51.954;20.118;2023-02-13T12:48:46;101786.45;;;7.39;77.33
35848;BME280;22332;51.954;20.118;2023-02-13T12:52:06;101793.48;;;7.43;77.86
35848;BME280;22332;51.954;20.118;2023-02-13T12:55:26;101787.35;;;7.51;77.26
35848;BME280;22332;51.954;20.118;2023-02-13T12:58:47;101783.52;;;7.55;77.85
35848;BME280;22332;51.954;20.118;2023-02-13T13:02:14;101782.16;;;7.60;76.81
35848;BME280;22332;51.954;20.118;2023-02-13T13:05:35;101782.20;;;7.42;76.35
35848;BME280;22332;51.954;20.118;2023-02-13T13:08:59;101772.36;;;7.41;77.50
35848;BME280;22332;51.954;20.118;2023-02-13T13:12:15;101769.27;;;7.45;77.73
35848;BME280;22332;51.954;20.118;2023-02-13T13:15:33;101767.27;;;7.35;76.32
35848;BME280;22332;51.954;20.118;2023-02-13T13:18:55;101757.68;;;7.18;76.36
35848;BME280;22332;51.954;20.118;2023-02-13T13:22:11;101765.73;;;7.14;76.98
35848;BME280;22332;51.954;20.118;2023-02-13T13:25:27;101767.06;;;7.09;77.09
35848;BME280;22332;51.954;20.118;2023-02-13T13:28:37;101762.91;;;7.01;76.27
35848;BME280;22332;51.954;20.118;2023-02-13T13:31:49;101742.31;;;6.97;76.82
35848;BME280;22332;51.954;20.118;2023-02-13T13:34:57;101741.59;;;6.88;76.85
35848;BME280;22332;51.954;20.118;2023-02-13T13:38:07;101739.86;;;6.73;76.93
35848;BME280;22332;51.954;20.118;2023-02-13T13:41:22;101737.49;;;6.65;77.30
35848;BME280;22332;51.954;20.118;2023-02-13T13:48:32;101725.06;;;6.72;77.27
35848;BME280;22332;51.954;20.118;2023-02-13T13:51:41;101728.38;;;6.76;77.49
35848;BME280;22332;51.954;20.118;2023-02-13T13:54:47;101724.00;;;6.78;77.28
35848;BME280;22332;51.954;20.118;2023-02-13T13:58:00;101730.02;;;6.84;77.41
35848;BME280;22332;51.954;20.118;2023-02-13T14:01:27;101730.92;;;6.78;76.82
35848;BME280;22332;51.954;20.118;2023-02-13T14:04:41;101726.73;;;6.71;77.21
35848;BME280;22332;51.954;20.118;2023-02-13T14:11:47;101731.48;;;6.65;78.21
35848;BME280;22332;51.954;20.118;2023-02-13T14:14:53;101744.30;;;6.67;78.09
35848;BME280;22332;51.954;20.118;2023-02-13T14:18:00;101750.93;;;6.62;78.43
35848;BME280;22332;51.954;20.118;2023-02-13T14:21:09;101743.23;;;6.66;78.60
35848;BME280;22332;51.954;20.118;2023-02-13T14:24:18;101740.92;;;6.67;78.27
35848;BME280;22332;51.954;20.118;2023-02-13T14:27:27;101742.69;;;6.64;78.51
35848;BME280;22332;51.954;20.118;2023-02-13T14:30:36;101728.95;;;6.57;78.32
35848;BME280;22332;51.954;20.118;2023-02-13T14:33:43;101733.48;;;6.52;78.68
35848;BME280;22332;51.954;20.118;2023-02-13T14:36:59;101732.51;;;6.57;78.87
35848;BME280;22332;51.954;20.118;2023-02-13T14:40:40;101731.77;;;6.58;78.96
35848;BME280;22332;51.954;20.118;2023-02-13T14:43:53;101729.97;;;6.55;79.00
35848;BME280;22332;51.954;20.118;2023-02-13T14:47:01;101728.58;;;6.52;79.00
35848;BME280;22332;51.954;20.118;2023-02-13T14:50:13;101728.17;;;6.46;79.06
35848;BME280;22332;51.954;20.118;2023-02-13T14:53:23;101713.10;;;6.44;79.26
35848;BME280;22332;51.954;20.118;2023-02-13T14:56:31;101697.90;;;6.39;79.36
35848;BME280;22332;51.954;20.118;2023-02-13T14:59:40;101687.95;;;6.33;79.26
35848;BME280;22332;51.954;20.118;2023-02-13T15:02:51;101696.77;;;6.31;79.22
35848;BME280;22332;51.954;20.118;2023-02-13T15:06:00;101710.35;;;6.31;79.70
35848;BME280;22332;51.954;20.118;2023-02-13T15:09:18;101711.97;;;6.36;79.28
35848;BME280;22332;51.954;20.118;2023-02-13T15:12:30;101718.98;;;6.37;79.45
35848;BME280;22332;51.954;20.118;2023-02-13T15:15:37;101714.06;;;6.31;79.36
35848;BME280;22332;51.954;20.118;2023-02-13T15:18:46;101716.61;;;6.20;79.51
35848;BME280;22332;51.954;20.118;2023-02-13T15:21:58;101729.39;;;6.19;79.95
35848;BME280;22332;51.954;20.118;2023-02-13T15:25:06;101719.06;;;6.18;79.60
35848;BME280;22332;51.954;20.118;2023-02-13T15:28:19;101711.77;;;6.15;79.69
35848;BME280;22332;51.954;20.118;2023-02-13T15:31:25;101708.35;;;6.14;79.85
35848;BME280;22332;51.954;20.118;2023-02-13T15:34:35;101696.55;;;6.16;79.86
35848;BME280;22332;51.954;20.118;2023-02-13T15:37:41;101691.98;;;6.21;79.54
35848;BME280;22332;51.954;20.118;2023-02-13T15:40:48;101689.91;;;6.24;79.49
35848;BME280;22332;51.954;20.118;2023-02-13T15:43:56;101685.23;;;6.22;79.45
35848;BME280;22332;51.954;20.118;2023-02-13T15:47:05;101683.25;;;6.17;79.62
35848;BME280;22332;51.954;20.118;2023-02-13T15:50:20;101679.39;;;6.10;79.69
35848;BME280;22332;51.954;20.118;2023-02-13T15:53:28;101675.03;;;6.06;79.63
35848;BME280;22332;51.954;20.118;2023-02-13T15:56:35;101678.66;;;6.02;79.72
35848;BME280;22332;51.954;20.118;2023-02-13T15:59:41;101687.34;;;6.04;79.65
35848;BME280;22332;51.954;20.118;2023-02-13T16:02:48;101687.33;;;6.07;79.78
35848;BME280;22332;51.954;20.118;2023-02-13T16:05:54;101694.25;;;6.04;79.57
35848;BME280;22332;51.954;20.118;2023-02-13T16:09:00;101707.73;;;6.00;79.61
35848;BME280;22332;51.954;20.118;2023-02-13T16:12:13;101707.17;;;5.90;79.26
35848;BME280;22332;51.954;20.118;2023-02-13T16:15:21;101714.38;;;5.78;79.47
35848;BME280;22332;51.954;20.118;2023-02-13T16:18:31;101710.77;;;5.70;79.72
35848;BME280;22332;51.954;20.118;2023-02-13T16:21:37;101702.55;;;5.72;79.72
35848;BME280;22332;51.954;20.118;2023-02-13T16:24:47;101704.77;;;5.73;79.99
35848;BME280;22332;51.954;20.118;2023-02-13T16:27:56;101720.66;;;5.70;79.91
35848;BME280;22332;51.954;20.118;2023-02-13T16:31:03;101725.72;;;5.65;79.78
35848;BME280;22332;51.954;20.118;2023-02-13T16:34:22;101726.42;;;5.62;79.86
35848;BME280;22332;51.954;20.118;2023-02-13T16:37:31;101733.35;;;5.61;79.85
35848;BME280;22332;51.954;20.118;2023-02-13T16:40:40;101730.85;;;5.61;79.62
35848;BME280;22332;51.954;20.118;2023-02-13T16:43:47;101718.27;;;5.66;79.66
35848;BME280;22332;51.954;20.118;2023-02-13T16:46:56;101713.10;;;5.73;79.65